Time;durP1;ratioP1;P1;durP2;ratioP2;P2;SDS_P1;SDS_P2;PMS_P1;PMS_P2;Temp;Humidity;BMP_temperature;BMP_pressure;BME280_temperature;BME280_humidity;BME280_pressure;Samples;Min_cycle;Max_cycle;Signal;HPM_P1;HPM_P2
2024/01/14 00:03:08;;;;;;;76.17;45.13;;;;;;;-0.69;100.00;101206.31;10475451;28;20077;-81
2024/01/14 00:08:08;;;;;;;79.80;46.97;;;;;;;-0.68;100.00;101185.00;10479987;28;20055;-81
2024/01/14 00:13:09;;;;;;;66.03;38.77;;;;;;;-0.67;100.00;101180.78;10537893;27;20127;-80
2024/01/14 00:18:09;;;;;;;103.70;53.20;;;;;;;-0.66;100.00;101183.47;10501126;28;20072;-80
2024/01/14 00:23:10;;;;;;;83.00;47.30;;;;;;;-0.64;100.00;101181.06;10491716;28;20476;-81
2024/01/14 00:28:10;;;;;;;85.43;48.13;;;;;;;-0.64;100.00;101171.69;10469976;28;20063;-81
2024/01/14 00:33:11;;;;;;;90.67;52.53;;;;;;;-0.64;100.00;101169.09;10487222;28;20097;-80
2024/01/14 00:38:13;;;;;;;88.00;52.93;;;;;;;-0.63;100.00;101160.63;10469112;28;20124;-81
2024/01/14 00:43:14;;;;;;;82.95;49.05;;;;;;;-0.60;100.00;101148.06;10482873;28;20075;-81
2024/01/14 00:48:14;;;;;;;76.80;51.40;;;;;;;-0.61;100.00;101147.94;10474240;28;20468;-80
2024/01/14 00:53:15;;;;;;;93.23;48.73;;;;;;;-0.64;100.00;101151.09;10456775;28;20545;-81
2024/01/14 00:58:15;;;;;;;86.03;51.87;;;;;;;-0.67;100.00;101144.78;10486564;28;20127;-81
2024/01/14 01:03:16;;;;;;;82.37;52.63;;;;;;;-0.66;100.00;101126.91;10494760;28;20040;-81
2024/01/14 01:08:16;;;;;;;72.47;50.73;;;;;;;-0.63;100.00;101139.19;10483321;28;20040;-80
2024/01/14 01:13:17;;;;;;;81.50;52.97;;;;;;;-0.62;100.00;101118.75;10508001;28;20559;-81
2024/01/14 01:18:18;;;;;;;59.97;39.00;;;;;;;-0.64;100.00;101112.53;10517261;27;20028;-82
2024/01/14 01:23:18;;;;;;;75.53;54.03;;;;;;;-0.60;100.00;101106.03;10517960;27;20420;-82
2024/01/14 01:28:19;;;;;;;80.33;41.77;;;;;;;-0.60;100.00;101096.66;10526536;27;20114;-81
2024/01/14 01:33:19;;;;;;;81.53;48.93;;;;;;;-0.62;100.00;101098.16;10509799;27;20116;-81
2024/01/14 01:38:20;;;;;;;81.47;48.77;;;;;;;-0.61;100.00;101099.09;10483897;28;20041;-81
2024/01/14 01:43:20;;;;;;;77.00;48.07;;;;;;;-0.64;100.00;101084.25;10482048;28;20181;-81
2024/01/14 01:48:21;;;;;;;82.40;47.60;;;;;;;-0.61;100.00;101082.00;10480239;28;20044;-82
2024/01/14 01:53:25;;;;;;;79.43;48.75;;;;;;;-0.62;100.00;101075.03;10479159;28;20509;-80
2024/01/14 01:58:25;;;;;;;77.20;46.63;;;;;;;-0.64;100.00;101070.53;10525234;27;20044;-80
2024/01/14 02:03:26;;;;;;;72.97;49.17;;;;;;;-0.66;100.00;101072.03;10538173;27;20444;-82
2024/01/14 02:08:26;;;;;;;92.37;52.20;;;;;;;-0.67;100.00;101073.69;10477816;28;20052;-81
2024/01/14 02:13:27;;;;;;;87.07;54.10;;;;;;;-0.65;100.00;101073.84;10494663;28;20199;-80
2024/01/14 02:18:28;;;;;;;96.20;52.00;;;;;;;-0.68;100.00;101083.84;10460261;28;20045;-81
2024/01/14 02:23:29;;;;;;;92.45;50.38;;;;;;;-0.67;100.00;101075.38;10489049;28;20133;-79
2024/01/14 02:28:30;;;;;;;91.57;54.50;;;;;;;-0.67;100.00;101068.53;10522159;27;20131;-80
2024/01/14 02:33:30;;;;;;;86.57;52.65;;;;;;;-0.73;100.00;101067.97;10519876;28;20399;-80
2024/01/14 02:38:31;;;;;;;54.30;33.27;;;;;;;-0.80;100.00;101061.34;10505975;27;20119;-80
2024/01/14 02:43:31;;;;;;;87.27;52.03;;;;;;;-0.82;100.00;101054.22;10477887;28;20135;-80
2024/01/14 02:48:32;;;;;;;85.53;50.27;;;;;;;-0.84;100.00;101048.03;10482263;28;20041;-80
2024/01/14 02:53:32;;;;;;;75.03;48.80;;;;;;;-0.81;100.00;101045.75;10489015;28;20039;-80
2024/01/14 02:58:33;;;;;;;76.80;48.57;;;;;;;-0.81;100.00;101028.69;10490012;27;20046;-80
2024/01/14 03:03:33;;;;;;;88.40;50.73;;;;;;;-0.82;100.00;101021.72;10485854;28;20514;-80
2024/01/14 03:08:34;;;;;;;68.27;40.40;;;;;;;-0.86;100.00;101018.69;10474850;28;20081;-80
2024/01/14 03:13:34;;;;;;;80.30;51.77;;;;;;;-0.87;100.00;101010.09;10496774;27;20064;-80
2024/01/14 03:18:35;;;;;;;78.97;51.33;;;;;;;-0.86;100.00;101004.22;10503888;28;20441;-81
2024/01/14 03:23:35;;;;;;;98.80;49.97;;;;;;;-0.90;100.00;101004.69;10445176;28;20037;-81
2024/01/14 03:28:36;;;;;;;80.70;48.30;;;;;;;-1.00;100.00;101007.13;10507904;27;20046;-80
2024/01/14 03:33:36;;;;;;;60.43;38.00;;;;;;;-1.04;100.00;101000.75;10519947;27;20085;-79
2024/01/14 03:38:37;;;;;;;98.37;52.57;;;;;;;-1.03;100.00;101007.72;10478650;28;20392;-81
2024/01/14 03:43:37;;;;;;;91.80;52.73;;;;;;;-1.01;100.00;100985.66;10507662;27;20059;-80
2024/01/14 03:48:38;;;;;;;85.50;54.63;;;;;;;-1.02;100.00;100982.94;10513973;27;20154;-80
2024/01/14 03:53:38;;;;;;;104.47;55.23;;;;;;;-1.01;100.00;100972.78;10521327;27;20044;-79
2024/01/14 03:58:39;;;;;;;78.07;50.90;;;;;;;-0.99;100.00;100971.28;10497109;27;20044;-79
2024/01/14 04:03:39;;;;;;;51.07;35.87;;;;;;;-1.00;100.00;100961.75;10527339;27;20119;-79
2024/01/14 04:08:40;;;;;;;79.37;54.93;;;;;;;-1.00;100.00;100959.19;10494587;28;20119;-80
2024/01/14 04:13:40;;;;;;;92.33;50.43;;;;;;;-0.99;100.00;100952.41;10501712;28;20052;-78
2024/01/14 04:18:41;;;;;;;77.83;47.83;;;;;;;-0.99;100.00;100949.84;10465954;28;20198;-80
2024/01/14 04:23:41;;;;;;;85.20;48.03;;;;;;;-0.97;100.00;100949.19;10476570;28;20089;-79
2024/01/14 04:28:42;;;;;;;80.70;46.00;;;;;;;-1.00;100.00;100950.59;10478545;28;20156;-79
2024/01/14 04:33:43;;;;;;;64.00;43.53;;;;;;;-0.97;100.00;100946.63;10477872;28;20116;-81
2024/01/14 04:38:43;;;;;;;76.50;44.30;;;;;;;-0.95;100.00;100924.56;10476773;28;20043;-80
2024/01/14 04:43:44;;;;;;;60.53;43.00;;;;;;;-0.96;100.00;100938.16;10484788;28;20049;-79
2024/01/14 04:48:44;;;;;;;74.53;45.13;;;;;;;-0.99;100.00;100939.56;10486085;28;20052;-80
2024/01/14 04:53:45;;;;;;;66.07;41.23;;;;;;;-0.99;100.00;100927.59;10493498;28;20111;-79
2024/01/14 04:58:45;;;;;;;61.77;42.70;;;;;;;-0.97;100.00;100932.91;10530885;27;20594;-80
2024/01/14 05:03:46;;;;;;;64.47;43.67;;;;;;;-1.00;100.00;100918.09;10515265;27;20182;-81
2024/01/14 05:08:46;;;;;;;69.93;42.63;;;;;;;-1.04;100.00;100919.47;10469725;28;20048;-80
2024/01/14 05:13:47;;;;;;;76.53;44.33;;;;;;;-1.01;100.00;100911.13;10493280;28;20063;-80
2024/01/14 05:18:48;;;;;;;66.80;41.08;;;;;;;-1.05;100.00;100901.31;10493606;28;20048;-79
2024/01/14 05:23:48;;;;;;;66.60;43.17;;;;;;;-0.99;100.00;100886.50;10486612;28;20166;-80
2024/01/14 05:28:49;;;;;;;67.70;39.80;;;;;;;-1.03;100.00;100894.66;10494270;28;20041;-81
2024/01/14 05:33:49;;;;;;;68.00;43.43;;;;;;;-1.05;100.00;100884.25;10482863;28;20044;-80
2024/01/14 05:38:50;;;;;;;68.20;42.83;;;;;;;-1.08;100.00;100889.13;10502561;27;20040;-79
2024/01/14 05:43:50;;;;;;;76.07;44.57;;;;;;;-1.09;100.00;100876.09;10506653;28;20829;-81
2024/01/14 05:48:51;;;;;;;75.03;44.57;;;;;;;-1.07;100.00;100872.94;10483534;28;20041;-81
2024/01/14 05:53:52;;;;;;;83.43;48.63;;;;;;;-1.08;100.00;100858.28;10484806;27;20123;-80
2024/01/14 05:58:53;;;;;;;84.67;42.80;;;;;;;-1.05;100.00;100870.50;10524463;27;20488;-80
2024/01/14 06:03:54;;;;;;;66.97;42.38;;;;;;;-1.11;100.00;100858.00;10487512;28;20133;-78
2024/01/14 06:08:54;;;;;;;64.73;38.87;;;;;;;-1.11;100.00;100846.81;10533961;27;20483;-80
2024/01/14 06:13:55;;;;;;;72.47;41.10;;;;;;;-1.13;100.00;100845.75;10520268;27;20067;-78
2024/01/14 06:18:56;;;;;;;66.43;40.30;;;;;;;-1.12;100.00;100829.59;10497975;27;20132;-80
2024/01/14 06:23:56;;;;;;;63.20;40.60;;;;;;;-1.14;100.00;100837.16;10526370;27;20071;-77
2024/01/14 06:28:57;;;;;;;73.33;42.00;;;;;;;-1.12;100.00;100829.59;10485113;28;20032;-79
2024/01/14 06:33:57;;;;;;;54.93;27.90;;;;;;;-1.12;100.00;100825.38;10455923;28;20048;-80
2024/01/14 06:38:58;;;;;;;73.50;40.80;;;;;;;-1.14;100.00;100831.09;10481244;28;20056;-78
2024/01/14 06:43:58;;;;;;;65.47;39.50;;;;;;;-1.13;100.00;100822.63;10503596;27;20119;-81
2024/01/14 06:48:59;;;;;;;77.33;39.23;;;;;;;-1.11;100.00;100821.13;10529452;28;20040;-79
2024/01/14 06:53:59;;;;;;;69.13;38.17;;;;;;;-1.08;100.00;100817.19;10515561;28;20127;-79
2024/01/14 06:59:00;;;;;;;63.77;34.77;;;;;;;-1.11;100.00;100814.34;10483496;28;20123;-79
2024/01/14 07:04:00;;;;;;;61.77;37.47;;;;;;;-1.11;100.00;100813.41;10496969;28;20553;-80
2024/01/14 07:09:01;;;;;;;60.67;39.83;;;;;;;-1.15;100.00;100812.22;10473703;28;20127;-79
2024/01/14 07:14:01;;;;;;;60.37;35.73;;;;;;;-1.12;100.00;100815.09;10489352;28;20063;-80
2024/01/14 07:19:02;;;;;;;55.40;34.77;;;;;;;-1.13;100.00;100810.72;10477366;28;20127;-80
2024/01/14 07:24:03;;;;;;;53.87;31.87;;;;;;;-1.12;100.00;100802.25;10477524;28;20116;-79
2024/01/14 07:29:03;;;;;;;53.23;32.83;;;;;;;-1.14;100.00;100802.84;10479749;28;20048;-79
2024/01/14 07:34:04;;;;;;;57.73;31.40;;;;;;;-1.15;100.00;100803.59;10493211;28;20119;-80
2024/01/14 07:39:04;;;;;;;72.53;35.37;;;;;;;-1.14;100.00;100795.13;10476901;28;20123;-80
2024/01/14 07:44:05;;;;;;;43.73;32.40;;;;;;;-1.19;100.00;100793.03;10491199;28;20052;-80
2024/01/14 07:49:05;;;;;;;66.37;33.83;;;;;;;-1.17;100.00;100784.59;10477198;28;20480;-81
2024/01/14 07:54:06;;;;;;;49.97;32.30;;;;;;;-1.25;100.00;100784.78;10497251;28;20140;-79
2024/01/14 07:59:06;;;;;;;58.23;34.77;;;;;;;-1.30;100.00;100785.13;10505598;27;20127;-79
2024/01/14 08:04:07;;;;;;;48.00;28.00;;;;;;;-1.32;100.00;100795.22;10519446;27;20044;-79
2024/01/14 08:09:09;;;;;;;44.70;27.70;;;;;;;-1.30;100.00;100798.84;10530166;28;20123;-79
2024/01/14 08:14:09;;;;;;;;;;;;;;;-1.32;100.00;100795.22;10520478;28;20139;-80
2024/01/14 08:19:10;;;;;;;52.78;29.23;;;;;;;-1.31;100.00;100791.91;10477130;28;19921;-79
2024/01/14 08:24:10;;;;;;;48.03;31.77;;;;;;;-1.30;100.00;100786.00;10477496;28;20101;-78
2024/01/14 08:29:13;;;;;;;61.30;32.47;;;;;;;-1.24;100.00;100781.44;10476783;28;20123;-80
2024/01/14 08:34:13;;;;;;;62.58;31.25;;;;;;;-1.24;100.00;100786.56;10485652;28;20047;-81
2024/01/14 08:39:14;;;;;;;60.83;35.17;;;;;;;-1.20;100.00;100786.09;10467264;28;20136;-78
2024/01/14 08:44:15;;;;;;;61.60;35.97;;;;;;;-1.22;100.00;100782.50;10466527;28;20127;-80
2024/01/14 08:49:16;;;;;;;55.83;30.67;;;;;;;-1.22;100.00;100782.50;10465051;28;20045;-77
2024/01/14 08:54:17;;;;;;;57.73;33.23;;;;;;;-1.19;100.00;100790.47;10491204;28;20044;-80
2024/01/14 08:59:18;;;;;;;;;;;;;;;-1.14;100.00;100780.66;10514367;27;20125;-78
2024/01/14 09:04:19;;;;;;;54.92;29.33;;;;;;;-1.15;100.00;100789.13;10508191;27;20019;-79
2024/01/14 09:09:20;;;;;;;49.10;27.95;;;;;;;-1.17;100.00;100788.06;10488573;28;20055;-81
2024/01/14 09:14:20;;;;;;;50.40;28.93;;;;;;;-1.19;100.00;100782.78;10487699;28;20543;-79
2024/01/14 09:19:21;;;;;;;43.87;27.43;;;;;;;-1.15;100.00;100781.41;10476349;28;20044;-82
2024/01/14 09:24:21;;;;;;;50.63;29.53;;;;;;;-1.13;100.00;100777.31;10498490;28;20120;-81
2024/01/14 09:29:22;;;;;;;45.37;28.00;;;;;;;-1.16;100.00;100770.97;10474064;28;20060;-80
2024/01/14 09:34:23;;;;;;;60.20;31.47;;;;;;;-1.10;100.00;100779.25;10478898;28;20580;-81
2024/01/14 09:39:23;;;;;;;61.83;29.27;;;;;;;-1.11;100.00;100775.78;10488574;27;20119;-81
2024/01/14 09:44:24;;;;;;;47.57;26.20;;;;;;;-1.08;100.00;100772.59;10467680;27;20106;-81
2024/01/14 09:49:26;;;;;;;34.93;26.63;;;;;;;-1.05;100.00;100760.94;10464122;28;20080;-82
2024/01/14 09:54:27;;;;;;;39.15;25.48;;;;;;;-1.06;100.00;100754.00;10486901;28;20148;-81
2024/01/14 09:59:27;;;;;;;39.63;22.60;;;;;;;-1.05;100.00;100753.25;10483518;28;20434;-81
2024/01/14 10:04:28;;;;;;;42.97;27.13;;;;;;;-0.98;100.00;100753.81;10485705;27;20115;-80
2024/01/14 10:09:29;;;;;;;47.57;26.47;;;;;;;-0.97;100.00;100753.94;10520755;28;20119;-80
2024/01/14 10:14:29;;;;;;;45.23;25.33;;;;;;;-1.02;100.00;100746.59;10515744;27;20492;-80
2024/01/14 10:19:31;;;;;;;39.30;25.10;;;;;;;-1.05;100.00;100742.97;10508427;27;20048;-80
2024/01/14 10:24:32;;;;;;;33.17;18.85;;;;;;;-1.01;100.00;100735.53;10467670;28;20041;-80
2024/01/14 10:29:33;;;;;;;47.15;22.30;;;;;;;-0.88;100.00;100733.34;10477253;28;20046;-80
2024/01/14 10:34:33;;;;;;;48.40;25.43;;;;;;;-0.82;100.00;100720.13;10477378;28;20043;-80
2024/01/14 10:39:34;;;;;;;32.50;20.73;;;;;;;-0.80;100.00;100711.81;10485178;28;20440;-81
2024/01/14 10:44:35;;;;;;;35.47;21.73;;;;;;;-0.70;100.00;100705.81;10521586;27;20063;-81
2024/01/14 10:49:36;;;;;;;28.87;19.23;;;;;;;-0.68;100.00;100695.69;10492416;27;20124;-81
2024/01/14 10:54:53;;;;;;;34.17;22.57;;;;;;;-0.73;100.00;100695.25;10463950;28;20149;-81
2024/01/14 10:59:56;;;;;;;28.60;21.42;;;;;;;-0.77;100.00;100676.09;10505754;27;20037;-82
2024/01/14 11:04:57;;;;;;;34.85;21.58;;;;;;;-0.70;100.00;100671.50;10474604;28;20044;-82
2024/01/14 11:09:57;;;;;;;40.47;23.63;;;;;;;-0.68;100.00;100669.97;10467018;28;20130;-77
2024/01/14 11:15:12;;;;;;;37.93;23.83;;;;;;;-0.66;100.00;100651.34;10456016;28;20064;-79
2024/01/14 11:20:15;;;;;;;40.83;24.45;;;;;;;-0.66;100.00;100664.19;10484460;28;20040;-79
2024/01/14 11:25:16;;;;;;;41.75;23.55;;;;;;;-0.72;100.00;100650.78;10492310;28;20044;-82
2024/01/14 11:30:17;;;;;;;36.47;15.80;;;;;;;-0.73;100.00;100631.00;10494486;28;20044;-84
2024/01/14 11:35:34;;;;;;;34.83;21.13;;;;;;;-0.72;100.00;100624.19;10478320;27;20047;-80
2024/01/14 11:40:35;;;;;;;35.10;21.63;;;;;;;-0.79;100.00;100617.59;10486816;27;20086;-79
2024/01/14 11:45:36;;;;;;;39.77;18.43;;;;;;;-0.84;100.00;100612.06;10494597;28;20114;-79
2024/01/14 11:50:36;;;;;;;34.55;21.42;;;;;;;-0.80;100.00;100598.72;10519174;28;20047;-80
2024/01/14 11:55:37;;;;;;;43.77;28.03;;;;;;;-0.73;100.00;100589.88;10510520;27;20055;-79
2024/01/14 12:00:38;;;;;;;38.07;23.40;;;;;;;-0.73;100.00;100586.41;10531556;28;20429;-80
2024/01/14 12:05:40;;;;;;;34.20;26.20;;;;;;;-0.70;100.00;100566.13;10529639;28;20036;-80
2024/01/14 12:10:40;;;;;;;39.13;25.73;;;;;;;-0.61;100.00;100539.53;10494837;28;20093;-80
2024/01/14 12:15:41;;;;;;;36.90;22.17;;;;;;;-0.51;100.00;100535.19;10530128;27;20032;-80
2024/01/14 12:20:43;;;;;;;34.30;22.47;;;;;;;-0.48;100.00;100520.94;10530771;27;20093;-80
2024/01/14 12:25:43;;;;;;;37.38;24.63;;;;;;;-0.53;100.00;100513.59;10528948;27;20044;-79
2024/01/14 12:30:44;;;;;;;39.43;20.73;;;;;;;-0.53;100.00;100508.44;10529913;27;20054;-78
2024/01/14 12:35:44;;;;;;;34.57;23.57;;;;;;;-0.51;100.00;100494.06;10531162;27;20123;-79
2024/01/14 12:40:45;;;;;;;32.93;21.87;;;;;;;-0.48;100.00;100481.47;10525436;27;20170;-79
2024/01/14 12:45:49;;;;;;;37.10;22.27;;;;;;;-0.49;100.00;100479.66;10532178;27;20046;-80
2024/01/14 12:50:57;;;;;;;39.35;23.52;;;;;;;-0.46;100.00;100473.13;10527568;28;20043;-80
2024/01/14 12:56:11;;;;;;;45.83;26.92;;;;;;;-0.54;100.00;100468.09;10492964;27;20417;-80
2024/01/14 13:01:11;;;;;;;37.47;24.50;;;;;;;-0.56;100.00;100457.69;10563501;27;20479;-80
2024/01/14 13:06:12;;;;;;;36.23;22.93;;;;;;;-0.53;100.00;100462.16;10527486;27;20074;-80
2024/01/14 13:11:12;;;;;;;38.40;24.00;;;;;;;-0.60;100.00;100461.66;10522764;27;20047;-81
2024/01/14 13:16:13;;;;;;;44.43;26.13;;;;;;;-0.64;100.00;100457.00;10529168;27;20073;-80
2024/01/14 13:21:13;;;;;;;36.27;23.83;;;;;;;-0.66;100.00;100455.09;10492959;27;20128;-80
2024/01/14 13:26:14;;;;;;;27.20;19.93;;;;;;;-0.67;100.00;100448.16;10487057;28;20068;-81
2024/01/14 13:31:15;;;;;;;37.10;25.27;;;;;;;-0.66;100.00;100438.00;10476983;28;20095;-80
2024/01/14 13:36:15;;;;;;;31.17;21.13;;;;;;;-0.67;100.00;100441.31;10429410;28;20078;-81
2024/01/14 13:41:16;;;;;;;35.27;21.23;;;;;;;-0.60;100.00;100429.91;10481483;28;20078;-80
2024/01/14 13:46:16;;;;;;;34.43;21.87;;;;;;;-0.55;100.00;100417.44;10477953;28;20082;-78
2024/01/14 13:51:19;;;;;;;34.53;22.37;;;;;;;-0.56;100.00;100408.84;10472879;28;20488;-77
2024/01/14 13:56:20;;;;;;;36.20;22.77;;;;;;;-0.58;100.00;100407.81;10497562;27;20036;-79
2024/01/14 14:01:20;;;;;;;41.50;22.30;;;;;;;-0.61;100.00;100408.44;10518199;27;20066;-79
2024/01/14 14:06:21;;;;;;;43.30;28.23;;;;;;;-0.64;100.00;100397.88;10466151;28;20059;-79
2024/01/14 14:11:21;;;;;;;34.63;21.93;;;;;;;-0.80;100.00;100393.13;10479899;28;20189;-80
2024/01/14 14:16:22;;;;;;;35.47;23.10;;;;;;;-0.89;100.00;100398.38;10522466;27;20483;-79
2024/01/14 14:21:23;;;;;;;40.57;25.43;;;;;;;-0.94;100.00;100393.63;10536644;27;20064;-78
2024/01/14 14:26:27;;;;;;;47.73;28.07;;;;;;;-1.00;100.00;100386.28;10493859;28;20096;-79
2024/01/14 14:31:30;;;;;;;37.58;23.70;;;;;;;-1.07;100.00;100379.72;10525119;27;20039;-78
2024/01/14 14:36:31;;;;;;;46.00;21.23;;;;;;;-1.10;100.00;100378.53;10494692;28;20205;-79
2024/01/14 14:41:32;;;;;;;43.60;27.97;;;;;;;-1.13;100.00;100373.13;10501217;27;20089;-80
2024/01/14 14:46:32;;;;;;;25.53;16.70;;;;;;;-1.12;100.00;100368.16;10488486;27;20128;-79
2024/01/14 14:51:33;;;;;;;50.63;24.67;;;;;;;-1.15;100.00;100352.47;10516705;28;20487;-79
2024/01/14 14:56:33;;;;;;;42.47;24.87;;;;;;;-1.11;100.00;100349.41;10518394;28;20550;-81
2024/01/14 15:01:34;;;;;;;47.63;22.90;;;;;;;-1.12;100.00;100345.03;10527759;28;20044;-79
2024/01/14 15:06:34;;;;;;;37.47;23.30;;;;;;;-1.13;100.00;100326.91;10501541;27;20032;-81
2024/01/14 15:11:35;;;;;;;40.07;23.73;;;;;;;-1.14;100.00;100310.63;10483131;28;20128;-79
2024/01/14 15:16:36;;;;;;;38.77;25.33;;;;;;;-1.12;100.00;100310.72;10472678;28;20494;-78
2024/01/14 15:21:37;;;;;;;34.47;22.97;;;;;;;-1.07;100.00;100299.19;10454117;28;20488;-79
2024/01/14 15:26:37;;;;;;;30.63;20.27;;;;;;;-1.02;100.00;100292.75;10460563;28;20040;-78
2024/01/14 15:31:38;;;;;;;31.23;16.37;;;;;;;-1.07;100.00;100292.38;10479258;28;20211;-79
2024/01/14 15:36:39;;;;;;;27.13;14.47;;;;;;;-1.09;100.00;100275.94;10488108;28;20552;-79
2024/01/14 15:41:42;;;;;;;37.75;18.25;;;;;;;-1.12;100.00;100267.97;10460007;28;20036;-80
2024/01/14 15:46:43;;;;;;;32.45;21.38;;;;;;;-1.12;100.00;100275.69;10462143;28;20582;-80
2024/01/14 15:51:44;;;;;;;38.03;21.70;;;;;;;-1.14;100.00;100271.16;10503702;27;20090;-78
2024/01/14 15:56:44;;;;;;;29.87;19.83;;;;;;;-1.15;100.00;100251.41;10503089;27;20036;-79
2024/01/14 16:01:46;;;;;;;32.17;21.07;;;;;;;-1.17;100.00;100256.41;10521280;28;20039;-79
2024/01/14 16:06:47;;;;;;;43.85;22.63;;;;;;;-1.15;100.00;100244.59;10516772;27;20055;-79
2024/01/14 16:11:48;;;;;;;35.80;21.33;;;;;;;-1.18;100.00;100231.50;10520975;27;20048;-79
2024/01/14 16:16:48;;;;;;;29.47;20.00;;;;;;;-1.10;100.00;100224.44;10521006;27;20236;-79
2024/01/14 16:21:49;;;;;;;39.67;20.70;;;;;;;-1.11;100.00;100228.69;10520987;27;20458;-78
2024/01/14 16:26:50;;;;;;;36.60;23.03;;;;;;;-1.11;100.00;100241.53;10519887;27;20036;-79
2024/01/14 16:31:50;;;;;;;39.47;24.40;;;;;;;-1.13;100.00;100229.31;10521377;27;20036;-78
2024/01/14 16:36:51;;;;;;;40.77;22.67;;;;;;;-1.17;100.00;100225.59;10522719;27;20372;-80
2024/01/14 16:41:51;;;;;;;36.20;23.20;;;;;;;-1.20;100.00;100227.91;10525706;27;20093;-79
2024/01/14 16:46:52;;;;;;;43.07;26.00;;;;;;;-1.21;100.00;100223.56;10507769;27;20226;-80
2024/01/14 16:51:53;;;;;;;36.60;22.10;;;;;;;-1.22;100.00;100217.50;10528870;27;20047;-80
2024/01/14 16:56:53;;;;;;;43.93;26.03;;;;;;;-1.23;100.00;100212.25;10528254;28;20445;-81
2024/01/14 17:01:54;;;;;;;34.53;22.77;;;;;;;-1.18;100.00;100210.97;10528607;27;20129;-80
2024/01/14 17:06:55;;;;;;;35.08;23.30;;;;;;;-1.23;100.00;100208.00;10563119;27;20031;-80
2024/01/14 17:11:57;;;;;;;39.40;26.70;;;;;;;-1.21;100.00;100196.19;10487960;28;20032;-80
2024/01/14 17:16:57;;;;;;;36.97;25.02;;;;;;;-1.17;100.00;100188.72;10503527;28;20043;-79
2024/01/14 17:21:58;;;;;;;34.43;22.40;;;;;;;-1.19;100.00;100192.06;10486368;28;20060;-79
2024/01/14 17:27:01;;;;;;;44.37;25.70;;;;;;;-1.19;100.00;100183.50;10530313;27;20055;-79
2024/01/14 17:32:02;;;;;;;41.58;25.77;;;;;;;-1.21;100.00;100185.03;10492543;28;20040;-79
2024/01/14 17:37:02;;;;;;;41.17;25.87;;;;;;;-1.24;100.00;100174.50;10485702;28;20107;-80
2024/01/14 17:42:03;;;;;;;40.23;25.17;;;;;;;-1.27;100.00;100172.56;10459958;28;20036;-80
2024/01/14 17:47:04;;;;;;;35.20;24.77;;;;;;;-1.33;100.00;100152.41;10525887;27;20054;-80
2024/01/14 17:52:05;;;;;;;31.77;24.33;;;;;;;-1.38;100.00;100143.44;10484173;28;20760;-80
2024/01/14 17:57:05;;;;;;;48.33;27.13;;;;;;;-1.38;100.00;100151.13;10496536;27;20036;-80
2024/01/14 18:02:06;;;;;;;37.37;24.97;;;;;;;-1.36;100.00;100144.47;10488329;27;20043;-79
2024/01/14 18:07:06;;;;;;;39.97;26.10;;;;;;;-1.40;100.00;100138.94;10511811;27;20118;-80
2024/01/14 18:12:07;;;;;;;50.87;27.43;;;;;;;-1.38;100.00;100139.94;10529780;28;20205;-79
2024/01/14 18:17:08;;;;;;;49.80;25.87;;;;;;;-1.40;100.00;100142.41;10516620;27;20029;-79
2024/01/14 18:22:09;;;;;;;38.50;23.67;;;;;;;-1.41;100.00;100124.28;10524705;27;20170;-79
2024/01/14 18:27:09;;;;;;;39.85;25.85;;;;;;;-1.42;100.00;100120.84;10525183;28;20043;-80
2024/01/14 18:32:10;;;;;;;42.83;25.97;;;;;;;-1.43;100.00;100113.00;10522123;27;20444;-79
2024/01/14 18:37:11;;;;;;;40.40;28.40;;;;;;;-1.48;100.00;100116.09;10525106;27;20119;-79
2024/01/14 18:42:11;;;;;;;36.50;26.00;;;;;;;-1.49;100.00;100128.81;10523726;28;20040;-81
2024/01/14 18:47:12;;;;;;;44.57;28.63;;;;;;;-1.53;100.00;100109.66;10525544;28;20044;-80
2024/01/14 18:52:14;;;;;;;50.78;25.42;;;;;;;-1.55;100.00;100118.91;10510237;28;20126;-79
2024/01/14 18:57:14;;;;;;;39.40;26.53;;;;;;;-1.59;100.00;100114.28;10503205;28;20117;-79
2024/01/14 19:02:15;;;;;;;45.80;26.87;;;;;;;-1.61;100.00;100118.41;10520313;28;20120;-78
2024/01/14 19:07:15;;;;;;;51.47;25.93;;;;;;;-1.61;100.00;100115.81;10465109;28;20040;-78
2024/01/14 19:12:18;;;;;;;35.20;24.70;;;;;;;-1.63;100.00;100108.00;10496577;27;20535;-77
2024/01/14 19:17:19;;;;;;;40.65;26.15;;;;;;;-1.64;100.00;100121.63;10485407;28;20033;-78
2024/01/14 19:22:19;;;;;;;42.17;29.40;;;;;;;-1.57;100.00;100130.72;10479935;28;20036;-79
2024/01/14 19:27:20;;;;;;;56.93;33.87;;;;;;;-1.56;100.00;100126.50;10522269;27;20052;-78
2024/01/14 19:32:20;;;;;;;41.00;22.80;;;;;;;-1.58;100.00;100122.91;10525380;27;20120;-80
2024/01/14 19:37:21;;;;;;;39.33;24.00;;;;;;;-1.61;100.00;100118.41;10521773;27;20047;-78
2024/01/14 19:42:22;;;;;;;30.33;23.00;;;;;;;-1.63;100.00;100110.59;10523310;27;20103;-79
2024/01/14 19:47:22;;;;;;;44.83;25.13;;;;;;;-1.63;100.00;100120.84;10522618;27;20101;-79
2024/01/14 19:52:22;;;;;;;54.67;32.40;;;;;;;-1.65;100.00;100116.34;10496865;27;20056;-79
2024/01/14 19:57:23;;;;;;;50.77;33.40;;;;;;;-1.66;100.00;100114.53;10517830;28;20036;-78
2024/01/14 20:02:24;;;;;;;54.43;34.83;;;;;;;-1.65;100.00;100104.44;10501186;27;20120;-79
2024/01/14 20:07:24;;;;;;;54.47;33.80;;;;;;;-1.66;100.00;100099.16;10524108;27;20056;-79
2024/01/14 20:12:25;;;;;;;49.57;35.10;;;;;;;-1.59;100.00;100086.06;10521063;27;20369;-79
2024/01/14 20:17:25;;;;;;;51.23;29.97;;;;;;;-1.62;100.00;100080.66;10526878;28;20089;-80
2024/01/14 20:22:26;;;;;;;51.90;35.33;;;;;;;-1.63;100.00;100078.88;10487237;27;20130;-79
2024/01/14 20:27:26;;;;;;;61.67;35.03;;;;;;;-1.59;100.00;100065.53;10531526;27;20052;-80
2024/01/14 20:32:27;;;;;;;49.70;30.80;;;;;;;-1.59;100.00;100068.09;10531978;27;20135;-79
2024/01/14 20:37:27;;;;;;;59.53;33.10;;;;;;;-1.53;100.00;100080.56;10511077;28;20145;-81
2024/01/14 20:42:28;;;;;;;56.63;35.77;;;;;;;-1.50;100.00;100075.69;10530295;28;20230;-80
2024/01/14 20:47:28;;;;;;;41.57;29.60;;;;;;;-1.49;100.00;100062.94;10538337;27;20060;-79
2024/01/14 20:52:29;;;;;;;50.27;34.20;;;;;;;-1.49;100.00;100050.13;10527692;28;20127;-81
2024/01/14 20:57:29;;;;;;;50.80;34.33;;;;;;;-1.49;100.00;100049.25;10510415;28;20132;-81
2024/01/14 21:02:32;;;;;;;50.07;33.17;;;;;;;-1.48;100.00;100046.78;10500027;28;20126;-82
2024/01/14 21:07:32;;;;;;;54.95;34.72;;;;;;;-1.45;100.00;100042.66;10446973;28;20465;-83
2024/01/14 21:12:33;;;;;;;64.30;34.27;;;;;;;-1.45;100.00;100038.44;10512449;27;20040;-81
2024/01/14 21:17:33;;;;;;;47.37;32.60;;;;;;;-1.47;100.00;100024.59;10557410;27;20134;-80
2024/01/14 21:22:35;;;;;;;49.60;33.20;;;;;;;-1.46;100.00;100031.53;10472205;28;20123;-81
2024/01/14 21:27:36;;;;;;;54.83;32.72;;;;;;;-1.46;100.00;100021.25;10486585;28;20037;-79
2024/01/14 21:32:36;;;;;;;41.23;27.83;;;;;;;-1.44;100.00;100026.50;10513915;27;20653;-80
2024/01/14 21:37:37;;;;;;;71.27;35.93;;;;;;;-1.42;100.00;100024.94;10474384;28;20064;-80
2024/01/14 21:42:37;;;;;;;50.27;32.37;;;;;;;-1.40;100.00;100019.19;10524345;28;20514;-81
2024/01/14 21:47:38;;;;;;;80.33;33.63;;;;;;;-1.45;100.00;100011.88;10529653;27;20047;-81
2024/01/14 21:52:38;;;;;;;55.63;34.03;;;;;;;-1.53;100.00;100013.81;10528529;27;20452;-80
2024/01/14 21:57:39;;;;;;;54.40;32.87;;;;;;;-1.65;100.00;100004.34;10510955;27;20139;-81
2024/01/14 22:02:39;;;;;;;44.03;25.20;;;;;;;-1.83;100.00;99996.00;10525149;27;20050;-82
2024/01/14 22:07:40;;;;;;;51.60;31.37;;;;;;;-1.69;100.00;99998.81;10528586;27;21201;-80
2024/01/14 22:12:40;;;;;;;47.10;34.67;;;;;;;-1.58;100.00;100008.28;10510325;27;20046;-80
2024/01/14 22:17:41;;;;;;;52.47;32.47;;;;;;;-1.48;100.00;100005.72;10527455;27;20039;-80